Ashford, WV

12:09 PM EDT on October 24, 2014 (GMT -0400)
Joes Creek | Change Station
CLOSE
Current Station
Personal Weather Station
Location: Comfort, WV
Elevation: 784 ft
Nearby Weather Stations

Elev 784 ft 38.12 °N, 81.59 °W | Updated 1 minute ago

Mostly Cloudy
Mostly Cloudy
53.6 °F
Feels Like 53.6 °F
N
0.9
Wind Variable Wind from WSW
Gusts 1.0 mph

Today
High -- | Low -- °F
--% Chance of Precip.
Yesterday
High -- | Low -- °F
Precip. -- in
7:44 AM 6:36 PM
New Moon, 1% visible
Pressure 30.14 in
Visibility 10.0 miles
Clouds Few 1200 ft
Scattered Clouds 8000 ft
Mostly Cloudy 25000 ft
Dew Point 48 °F
Humidity 80%
Rainfall 0.00 in
Snow Depth Not available.
UV 2 out of 12
Pollen .40 out of 12
Air Quality Not available.
Flu Activity Sporadic
METAR KCRW 241554Z 22003KT 10SM FEW012 SCT080 BKN250 10/07 A3013 RMK AO2 SLP206 T01000067

More Conditions Fewer Conditions

Pressure 30.14 in
Visibility 10.0 miles
Clouds Few 1200 ft
Scattered Clouds 8000 ft
Mostly Cloudy 25000 ft
Dew Point 48 °F
Humidity 80%
Rainfall 0.00 in
Snow Depth Not available.
UV 2 out of 12
Pollen .40 out of 12
Air Quality Not available.
Flu Activity Sporadic
METAR KCRW 241554Z 22003KT 10SM FEW012 SCT080 BKN250 10/07 A3013 RMK AO2 SLP206 T01000067

More Conditions Fewer Conditions

10-Day Weather Forecast

Almanac

Astronomy

Oct. 24, 2014 Rise Set
Actual Time 7:44 AM EDT 6:36 PM EDT
Civil Twilight 7:17 AM EDT 7:03 PM EDT
Nautical Twilight 6:46 AM EDT 7:34 PM EDT
Astronomical Twilight 6:16 AM EDT 8:05 PM EDT
Moon 8:21 AM EDT 7:16 PM EDT
Length of Visible Light 11h 46m
Length of Day
10h 52m
Tomorrow will be 2m 17s shorter.
New Moon, 1% of the Moon is Illuminated
Today
New Moon
Oct 30
First Quarter
Nov 6
Full
Nov 14
Last Quarter
Nov 22
New

Today's Extremes

State Highs State Lows

Community

WunderPhotos

Upload Photos

1,764,597 photos uploaded!

WunderBlogs® & News

Nearby

Snow Depth

Station Depth Elevation
No new snow has been reported.

Earthquake Activity

City Distance Mag. Time & Date
No recent earthquake activity has been reported nearby.
Minimum magnitude displayed is 2.5.

Coastal Water Temperatures

Place Temperature
No Stations Reporting

Nearby Weather Stations